Weather at Savusavu Airport

Public forecast

Using degrees Celsius for public forecast. Weather courtesy of forecast.io.

Current aviation weather report (METAR) for Savusavu Airport

Report is more than 6 hours old.

2024/07/23 04:00 (retrieved 10 hours ago)

NFNS 230400Z 12009KT 9999 BKN020 SCT045 27/22 Q1013

Closest aviation forecast (TAF) to Savusavu Airport

Closest forecast is Nausori International Airport, 86.9 nm (160.9 km) SSW.

2024/07/23 12:00 (retrieved 2 hours ago)

TAF NFNA 231105Z 2312/2412 VRB03KT 9999 SCT022 PROB30 2315/2320 0500 FG FM232000 VRB03KT 9999 FEW028